Portada
METAR-TAF:

METAR-TAF

Aeroports :

Kota Kinabalu, Malàisia

latitud: 05-56N, longitud: 116-03E, altitud: 3 m

Observació

L'informe es va fer fa 28 minuts, a les 22:30 UTC
Vent 7 kt del Est/Sud-Est, variant entre Est/Nord-Est i Sud-Est
Temperatura 24°C
Humitat 89%
Pressió 1012 hPa
Visibilitat 10 km o més
Escasses núvols a una alçada de 1500 ft
Cel ennuvolat a una alçada de 28000 ft

METAR: WBKK 202230Z 11007KT 070V130 9999 FEW015 BKN280 24/22 Q1012 NOSIG

Hora: 06:58 (22:58 UTC)

Pronòstic

L'informe es va fer fa 5 hores i 58 minuts, a les 17:00 UTC
Pronòstic vàlid del 20 a les 18 UTC al 21 a les 18 UTC
Vent 5 kt del Est/Sud-Est
Visibilitat 10 km o més
Escasses núvols a una alçada de 1500 ft
Evolucionant progressivament
l' 21 a les 00 UTC al 21 a les 02 UTC
Vent 5 kt del Nord/Nord-Oest

TAF: WBKK 201700Z 2018/2118 12005KT 9999 FEW015 BECMG 2100/2102 33005KT

Observacions i pronòstics meteorològics de més de 4000 aeroports (METAR i TAF).

Les estacions disponibles són els punts grocs i vermells al mapa.

Posi el ratolí al punt desitjat per veure el nom de l'estació.

Feu clic per veure les observacions i els pronòstics meteorològics.

Per canviar el mapa: feu clic els botons verds amb una creu de color negre per apropar; al botó verd amb un guió per allunyar la imatge; o en les fletxes verdes per a mapes adjacents.


METAR-TAF: